sensor_id;sensor_type;location;lat;lon;timestamp;pressure;altitude;pressure_sealevel;temperature;humidity
45275;BME280;31019;43.780;25.948;2022-08-19T00:01:55;100637.16;;;20.86;100.00
45275;BME280;31019;43.780;25.948;2022-08-19T00:04:27;100635.50;;;20.90;100.00
45275;BME280;31019;43.780;25.948;2022-08-19T00:07:00;100636.22;;;21.11;100.00
45275;BME280;31019;43.780;25.948;2022-08-19T00:09:29;100640.66;;;20.87;100.00
45275;BME280;31019;43.780;25.948;2022-08-19T00:12:13;100641.34;;;21.13;100.00
45275;BME280;31019;43.780;25.948;2022-08-19T00:14:42;100647.06;;;21.01;100.00
45275;BME280;31019;43.780;25.948;2022-08-19T00:17:16;100639.22;;;21.04;100.00
45275;BME280;31019;43.780;25.948;2022-08-19T00:19:49;100646.78;;;21.02;100.00
45275;BME280;31019;43.780;25.948;2022-08-19T00:22:24;100636.84;;;20.98;100.00
45275;BME280;31019;43.780;25.948;2022-08-19T00:24:58;100640.34;;;20.98;100.00
45275;BME280;31019;43.780;25.948;2022-08-19T00:27:29;100636.09;;;20.82;100.00
45275;BME280;31019;43.780;25.948;2022-08-19T00:29:56;100638.59;;;20.58;100.00
45275;BME280;31019;43.780;25.948;2022-08-19T00:32:39;100641.06;;;20.29;100.00
45275;BME280;31019;43.780;25.948;2022-08-19T00:35:16;100634.53;;;20.50;100.00
45275;BME280;31019;43.780;25.948;2022-08-19T00:37:47;100646.44;;;20.29;100.00
45275;BME280;31019;43.780;25.948;2022-08-19T00:40:25;100644.81;;;20.38;100.00
45275;BME280;31019;43.780;25.948;2022-08-19T00:42:53;100632.41;;;20.32;100.00
45275;BME280;31019;43.780;25.948;2022-08-19T00:45:23;100635.88;;;20.48;100.00
45275;BME280;31019;43.780;25.948;2022-08-19T00:47:53;100637.75;;;20.68;100.00
45275;BME280;31019;43.780;25.948;2022-08-19T00:50:21;100638.31;;;20.70;100.00
45275;BME280;31019;43.780;25.948;2022-08-19T00:52:50;100632.63;;;20.71;100.00
45275;BME280;31019;43.780;25.948;2022-08-19T00:55:20;100636.97;;;20.62;100.00
45275;BME280;31019;43.780;25.948;2022-08-19T00:57:58;100629.16;;;20.61;100.00
45275;BME280;31019;43.780;25.948;2022-08-19T01:00:30;100627.47;;;20.75;100.00
45275;BME280;31019;43.780;25.948;2022-08-19T01:03:00;100627.22;;;20.66;100.00
45275;BME280;31019;43.780;25.948;2022-08-19T01:05:42;100624.81;;;20.65;100.00
45275;BME280;31019;43.780;25.948;2022-08-19T01:08:11;100629.22;;;20.14;100.00
45275;BME280;31019;43.780;25.948;2022-08-19T01:10:42;100621.59;;;20.47;100.00
45275;BME280;31019;43.780;25.948;2022-08-19T01:13:13;100627.59;;;19.93;100.00
45275;BME280;31019;43.780;25.948;2022-08-19T01:15:44;100630.31;;;19.98;100.00
45275;BME280;31019;43.780;25.948;2022-08-19T01:18:14;100634.34;;;19.80;100.00
45275;BME280;31019;43.780;25.948;2022-08-19T01:20:43;100636.25;;;20.00;100.00
45275;BME280;31019;43.780;25.948;2022-08-19T01:23:31;100637.81;;;20.27;100.00
45275;BME280;31019;43.780;25.948;2022-08-19T01:26:34;100638.38;;;20.34;100.00
45275;BME280;31019;43.780;25.948;2022-08-19T01:29:07;100637.56;;;20.18;100.00
45275;BME280;31019;43.780;25.948;2022-08-19T01:31:35;100645.41;;;20.04;100.00
45275;BME280;31019;43.780;25.948;2022-08-19T01:34:03;100645.09;;;20.31;100.00
45275;BME280;31019;43.780;25.948;2022-08-19T01:36:35;100646.72;;;19.61;100.00
45275;BME280;31019;43.780;25.948;2022-08-19T01:39:04;100643.50;;;19.74;100.00
45275;BME280;31019;43.780;25.948;2022-08-19T01:41:32;100639.66;;;19.44;100.00
45275;BME280;31019;43.780;25.948;2022-08-19T01:44:00;100649.97;;;19.68;100.00
45275;BME280;31019;43.780;25.948;2022-08-19T01:46:42;100652.69;;;19.83;100.00
45275;BME280;31019;43.780;25.948;2022-08-19T01:49:09;100645.69;;;19.82;100.00
45275;BME280;31019;43.780;25.948;2022-08-19T01:51:38;100648.91;;;19.95;100.00
45275;BME280;31019;43.780;25.948;2022-08-19T01:54:07;100652.44;;;20.00;100.00
45275;BME280;31019;43.780;25.948;2022-08-19T01:56:57;100658.53;;;19.60;100.00
45275;BME280;31019;43.780;25.948;2022-08-19T01:59:26;100668.19;;;19.25;100.00
45275;BME280;31019;43.780;25.948;2022-08-19T02:01:54;100667.63;;;19.33;100.00
45275;BME280;31019;43.780;25.948;2022-08-19T02:04:38;100672.03;;;19.55;100.00
45275;BME280;31019;43.780;25.948;2022-08-19T02:07:06;100670.72;;;19.78;100.00
45275;BME280;31019;43.780;25.948;2022-08-19T02:09:35;100679.91;;;19.87;100.00
45275;BME280;31019;43.780;25.948;2022-08-19T02:12:10;100677.47;;;19.85;100.00
45275;BME280;31019;43.780;25.948;2022-08-19T02:14:44;64013.03;;;-143.39;100.00
45275;BME280;31019;43.780;25.948;2022-08-19T02:17:11;100669.53;;;19.33;100.00
45275;BME280;31019;43.780;25.948;2022-08-19T02:19:45;100669.09;;;19.66;100.00
45275;BME280;31019;43.780;25.948;2022-08-19T02:22:26;100669.09;;;19.66;100.00
45275;BME280;31019;43.780;25.948;2022-08-19T02:25:38;64013.03;;;-143.39;100.00
45275;BME280;31019;43.780;25.948;2022-08-19T02:28:12;64013.03;;;-143.39;100.00
45275;BME280;31019;43.780;25.948;2022-08-19T02:31:45;64013.03;;;-143.39;100.00
45275;BME280;31019;43.780;25.948;2022-08-19T02:35:16;64013.03;;;-143.39;100.00
45275;BME280;31019;43.780;25.948;2022-08-19T02:38:32;64013.03;;;-143.39;100.00
45275;BME280;31019;43.780;25.948;2022-08-19T02:42:03;64013.03;;;-143.39;100.00
45275;BME280;31019;43.780;25.948;2022-08-19T02:44:57;64013.03;;;-143.39;100.00
45275;BME280;31019;43.780;25.948;2022-08-19T02:47:37;64013.03;;;-143.39;100.00
45275;BME280;31019;43.780;25.948;2022-08-19T02:50:10;64013.03;;;-143.39;100.00
45275;BME280;31019;43.780;25.948;2022-08-19T02:52:38;64013.03;;;-143.39;100.00
45275;BME280;31019;43.780;25.948;2022-08-19T02:55:32;64013.03;;;-143.39;100.00
45275;BME280;31019;43.780;25.948;2022-08-19T02:58:21;64013.03;;;-143.39;100.00
45275;BME280;31019;43.780;25.948;2022-08-19T03:00:54;64013.03;;;-143.39;100.00
45275;BME280;31019;43.780;25.948;2022-08-19T03:03:23;64013.03;;;-143.39;100.00
45275;BME280;31019;43.780;25.948;2022-08-19T03:06:08;64013.03;;;-143.39;100.00
45275;BME280;31019;43.780;25.948;2022-08-19T03:08:46;64013.03;;;-143.39;100.00
45275;BME280;31019;43.780;25.948;2022-08-19T03:11:29;64013.03;;;-143.39;100.00
45275;BME280;31019;43.780;25.948;2022-08-19T03:14:22;64013.03;;;-143.39;100.00
45275;BME280;31019;43.780;25.948;2022-08-19T03:17:55;64013.03;;;-143.39;100.00
45275;BME280;31019;43.780;25.948;2022-08-19T03:20:28;64013.03;;;-143.39;100.00
45275;BME280;31019;43.780;25.948;2022-08-19T03:23:40;64013.03;;;-143.39;100.00
45275;BME280;31019;43.780;25.948;2022-08-19T03:27:13;64013.03;;;-143.39;100.00
45275;BME280;31019;43.780;25.948;2022-08-19T03:30:20;64013.03;;;-143.39;100.00
45275;BME280;31019;43.780;25.948;2022-08-19T03:33:01;64013.03;;;-143.39;100.00
45275;BME280;31019;43.780;25.948;2022-08-19T03:35:37;64013.03;;;-143.39;100.00
45275;BME280;31019;43.780;25.948;2022-08-19T03:38:05;64013.03;;;-143.39;100.00
45275;BME280;31019;43.780;25.948;2022-08-19T03:40:36;64013.03;;;-143.39;100.00
45275;BME280;31019;43.780;25.948;2022-08-19T03:43:03;100721.44;;;19.13;100.00
45275;BME280;31019;43.780;25.948;2022-08-19T03:45:32;100719.06;;;19.27;100.00
45275;BME280;31019;43.780;25.948;2022-08-19T03:47:59;100729.97;;;18.99;100.00
45275;BME280;31019;43.780;25.948;2022-08-19T03:50:32;100731.53;;;19.53;100.00
45275;BME280;31019;43.780;25.948;2022-08-19T03:53:01;100728.09;;;19.68;100.00
45275;BME280;31019;43.780;25.948;2022-08-19T03:55:29;100737.84;;;19.79;100.00
45275;BME280;31019;43.780;25.948;2022-08-19T03:58:03;100723.81;;;19.67;100.00
45275;BME280;31019;43.780;25.948;2022-08-19T04:00:29;100731.59;;;19.68;100.00
45275;BME280;31019;43.780;25.948;2022-08-19T04:02:59;100727.25;;;19.62;100.00
45275;BME280;31019;43.780;25.948;2022-08-19T04:05:26;100727.38;;;20.03;100.00
45275;BME280;31019;43.780;25.948;2022-08-19T04:07:54;100727.06;;;20.51;100.00
45275;BME280;31019;43.780;25.948;2022-08-19T04:10:24;100721.88;;;20.90;100.00
45275;BME280;31019;43.780;25.948;2022-08-19T04:12:51;100725.38;;;21.06;100.00
45275;BME280;31019;43.780;25.948;2022-08-19T04:15:18;100733.81;;;20.69;100.00
45275;BME280;31019;43.780;25.948;2022-08-19T04:17:52;100729.00;;;20.61;100.00
45275;BME280;31019;43.780;25.948;2022-08-19T04:20:21;100733.03;;;20.58;100.00
45275;BME280;31019;43.780;25.948;2022-08-19T04:22:48;100741.91;;;20.33;100.00
45275;BME280;31019;43.780;25.948;2022-08-19T04:25:15;100746.22;;;20.44;100.00
45275;BME280;31019;43.780;25.948;2022-08-19T04:27:42;100745.19;;;20.55;100.00
45275;BME280;31019;43.780;25.948;2022-08-19T04:30:13;100750.03;;;20.64;100.00
45275;BME280;31019;43.780;25.948;2022-08-19T04:32:42;100749.22;;;20.58;100.00
45275;BME280;31019;43.780;25.948;2022-08-19T04:35:17;100746.78;;;20.67;100.00
45275;BME280;31019;43.780;25.948;2022-08-19T04:37:46;100744.03;;;20.87;100.00
45275;BME280;31019;43.780;25.948;2022-08-19T04:40:13;100736.78;;;20.57;100.00
45275;BME280;31019;43.780;25.948;2022-08-19T04:43:00;100736.53;;;20.64;100.00
45275;BME280;31019;43.780;25.948;2022-08-19T04:45:28;100734.63;;;20.79;100.00
45275;BME280;31019;43.780;25.948;2022-08-19T04:48:01;100727.72;;;21.23;100.00
45275;BME280;31019;43.780;25.948;2022-08-19T04:50:28;100731.75;;;21.31;100.00
45275;BME280;31019;43.780;25.948;2022-08-19T04:52:58;100721.72;;;21.41;100.00
45275;BME280;31019;43.780;25.948;2022-08-19T04:55:25;100727.38;;;21.45;100.00
45275;BME280;31019;43.780;25.948;2022-08-19T04:57:52;100723.78;;;21.60;100.00
45275;BME280;31019;43.780;25.948;2022-08-19T05:00:20;100722.56;;;21.81;100.00
45275;BME280;31019;43.780;25.948;2022-08-19T05:02:49;100726.84;;;21.87;100.00
45275;BME280;31019;43.780;25.948;2022-08-19T05:05:16;100723.56;;;21.90;100.00
45275;BME280;31019;43.780;25.948;2022-08-19T05:07:45;100728.22;;;21.85;100.00
45275;BME280;31019;43.780;25.948;2022-08-19T05:10:15;100728.56;;;22.12;100.00
45275;BME280;31019;43.780;25.948;2022-08-19T05:12:48;100725.31;;;22.10;100.00
45275;BME280;31019;43.780;25.948;2022-08-19T05:15:14;100731.50;;;22.21;100.00
45275;BME280;31019;43.780;25.948;2022-08-19T05:17:41;100728.75;;;22.26;100.00
45275;BME280;31019;43.780;25.948;2022-08-19T05:20:28;100730.38;;;22.27;100.00
45275;BME280;31019;43.780;25.948;2022-08-19T05:23:13;100725.59;;;22.48;100.00
45275;BME280;31019;43.780;25.948;2022-08-19T05:25:43;100725.44;;;22.63;100.00
45275;BME280;31019;43.780;25.948;2022-08-19T05:28:10;100726.28;;;22.59;100.00
45275;BME280;31019;43.780;25.948;2022-08-19T05:30:37;100727.22;;;22.73;100.00
45275;BME280;31019;43.780;25.948;2022-08-19T05:33:05;100730.69;;;22.79;100.00
45275;BME280;31019;43.780;25.948;2022-08-19T05:35:33;100726.97;;;22.99;100.00
45275;BME280;31019;43.780;25.948;2022-08-19T05:38:00;100718.38;;;23.16;100.00
45275;BME280;31019;43.780;25.948;2022-08-19T05:43:35;100728.66;;;23.38;100.00
45275;BME280;31019;43.780;25.948;2022-08-19T05:46:20;100723.97;;;23.43;100.00
45275;BME280;31019;43.780;25.948;2022-08-19T05:48:50;100734.50;;;23.45;100.00
45275;BME280;31019;43.780;25.948;2022-08-19T05:51:16;100731.84;;;23.64;100.00
45275;BME280;31019;43.780;25.948;2022-08-19T05:53:44;100732.59;;;23.69;100.00
45275;BME280;31019;43.780;25.948;2022-08-19T05:56:15;100737.56;;;24.00;100.00
45275;BME280;31019;43.780;25.948;2022-08-19T05:58:45;100734.69;;;24.10;100.00
45275;BME280;31019;43.780;25.948;2022-08-19T06:01:14;100730.13;;;24.38;100.00
45275;BME280;31019;43.780;25.948;2022-08-19T06:03:42;100725.59;;;24.34;100.00
45275;BME280;31019;43.780;25.948;2022-08-19T06:06:10;100730.91;;;24.58;100.00
45275;BME280;31019;43.780;25.948;2022-08-19T06:08:38;100724.47;;;24.67;100.00
45275;BME280;31019;43.780;25.948;2022-08-19T06:11:14;100735.75;;;25.02;100.00
45275;BME280;31019;43.780;25.948;2022-08-19T06:13:41;100721.59;;;25.05;100.00
45275;BME280;31019;43.780;25.948;2022-08-19T06:16:09;100717.28;;;25.18;100.00
45275;BME280;31019;43.780;25.948;2022-08-19T06:18:36;100716.22;;;25.42;100.00
45275;BME280;31019;43.780;25.948;2022-08-19T06:21:03;100718.25;;;25.22;100.00
45275;BME280;31019;43.780;25.948;2022-08-19T06:23:30;100708.28;;;25.68;100.00
45275;BME280;31019;43.780;25.948;2022-08-19T06:25:57;100703.91;;;25.80;100.00
45275;BME280;31019;43.780;25.948;2022-08-19T06:28:24;100699.31;;;26.03;100.00
45275;BME280;31019;43.780;25.948;2022-08-19T06:30:50;100703.88;;;26.17;100.00
45275;BME280;31019;43.780;25.948;2022-08-19T06:33:20;100699.75;;;26.50;100.00
45275;BME280;31019;43.780;25.948;2022-08-19T06:35:46;100697.72;;;26.65;100.00
45275;BME280;31019;43.780;25.948;2022-08-19T06:38:13;100698.16;;;26.98;100.00
45275;BME280;31019;43.780;25.948;2022-08-19T06:40:40;100691.19;;;27.14;100.00
45275;BME280;31019;43.780;25.948;2022-08-19T06:43:07;100689.91;;;27.38;100.00
45275;BME280;31019;43.780;25.948;2022-08-19T06:45:36;100691.06;;;27.46;100.00
45275;BME280;31019;43.780;25.948;2022-08-19T06:48:03;100696.34;;;27.59;100.00
45275;BME280;31019;43.780;25.948;2022-08-19T06:50:32;100696.06;;;27.78;100.00
45275;BME280;31019;43.780;25.948;2022-08-19T06:52:58;100691.38;;;28.05;100.00
45275;BME280;31019;43.780;25.948;2022-08-19T06:55:25;100694.56;;;28.16;100.00
45275;BME280;31019;43.780;25.948;2022-08-19T06:57:54;100693.53;;;28.29;100.00
45275;BME280;31019;43.780;25.948;2022-08-19T07:00:21;100689.28;;;28.66;100.00
45275;BME280;31019;43.780;25.948;2022-08-19T07:02:48;100695.19;;;28.68;100.00
45275;BME280;31019;43.780;25.948;2022-08-19T07:05:15;100691.53;;;28.94;100.00
45275;BME280;31019;43.780;25.948;2022-08-19T07:07:44;100696.41;;;28.88;100.00
45275;BME280;31019;43.780;25.948;2022-08-19T07:10:11;100704.28;;;29.19;100.00
45275;BME280;31019;43.780;25.948;2022-08-19T07:12:38;100699.81;;;29.15;100.00
45275;BME280;31019;43.780;25.948;2022-08-19T07:15:06;100700.22;;;28.96;100.00
45275;BME280;31019;43.780;25.948;2022-08-19T07:17:34;100700.81;;;29.31;100.00
45275;BME280;31019;43.780;25.948;2022-08-19T07:20:03;100707.44;;;29.30;100.00
45275;BME280;31019;43.780;25.948;2022-08-19T07:22:32;100697.75;;;29.54;100.00
45275;BME280;31019;43.780;25.948;2022-08-19T07:25:00;100683.75;;;29.76;100.00
45275;BME280;31019;43.780;25.948;2022-08-19T07:27:29;100695.25;;;29.70;100.00
45275;BME280;31019;43.780;25.948;2022-08-19T07:29:55;100695.28;;;29.61;100.00
45275;BME280;31019;43.780;25.948;2022-08-19T07:32:22;100699.91;;;29.69;100.00
45275;BME280;31019;43.780;25.948;2022-08-19T07:34:51;100697.50;;;29.67;100.00
45275;BME280;31019;43.780;25.948;2022-08-19T07:37:18;100698.03;;;29.82;100.00
45275;BME280;31019;43.780;25.948;2022-08-19T07:39:44;100700.16;;;29.76;100.00
45275;BME280;31019;43.780;25.948;2022-08-19T07:42:12;100706.66;;;30.05;100.00
45275;BME280;31019;43.780;25.948;2022-08-19T07:44:40;100696.63;;;29.76;100.00
45275;BME280;31019;43.780;25.948;2022-08-19T07:47:10;100699.41;;;29.88;100.00
45275;BME280;31019;43.780;25.948;2022-08-19T07:49:41;100708.81;;;29.99;100.00
45275;BME280;31019;43.780;25.948;2022-08-19T07:52:11;100699.59;;;30.16;100.00
45275;BME280;31019;43.780;25.948;2022-08-19T07:54:39;100700.34;;;29.92;100.00
45275;BME280;31019;43.780;25.948;2022-08-19T07:57:07;100712.22;;;29.96;100.00
45275;BME280;31019;43.780;25.948;2022-08-19T07:59:35;100711.97;;;29.68;100.00
45275;BME280;31019;43.780;25.948;2022-08-19T08:02:05;100703.50;;;29.82;100.00
45275;BME280;31019;43.780;25.948;2022-08-19T08:04:52;100703.91;;;29.93;100.00
45275;BME280;31019;43.780;25.948;2022-08-19T08:07:42;100711.75;;;30.27;100.00
45275;BME280;31019;43.780;25.948;2022-08-19T08:10:28;100701.81;;;30.23;100.00
45275;BME280;31019;43.780;25.948;2022-08-19T08:12:59;100696.66;;;30.79;100.00
45275;BME280;31019;43.780;25.948;2022-08-19T08:15:27;100694.25;;;29.86;100.00
45275;BME280;31019;43.780;25.948;2022-08-19T08:17:54;100686.44;;;30.30;100.00
45275;BME280;31019;43.780;25.948;2022-08-19T08:20:32;100709.91;;;29.65;100.00
45275;BME280;31019;43.780;25.948;2022-08-19T08:23:12;100689.75;;;30.36;100.00
45275;BME280;31019;43.780;25.948;2022-08-19T08:25:53;100686.16;;;30.93;100.00
45275;BME280;31019;43.780;25.948;2022-08-19T08:28:24;100693.44;;;31.01;100.00
45275;BME280;31019;43.780;25.948;2022-08-19T08:30:53;100688.41;;;30.91;100.00
45275;BME280;31019;43.780;25.948;2022-08-19T08:33:22;100683.81;;;31.20;100.00
45275;BME280;31019;43.780;25.948;2022-08-19T08:35:50;100690.25;;;30.87;100.00
45275;BME280;31019;43.780;25.948;2022-08-19T08:38:34;100686.69;;;31.11;100.00
45275;BME280;31019;43.780;25.948;2022-08-19T08:41:15;100691.03;;;31.00;100.00
45275;BME280;31019;43.780;25.948;2022-08-19T08:43:57;100689.97;;;31.41;100.00
45275;BME280;31019;43.780;25.948;2022-08-19T08:46:36;100690.06;;;31.45;100.00
45275;BME280;31019;43.780;25.948;2022-08-19T08:49:16;100686.69;;;31.11;100.00
45275;BME280;31019;43.780;25.948;2022-08-19T08:51:51;100687.53;;;31.80;100.00
45275;BME280;31019;43.780;25.948;2022-08-19T08:54:30;100689.66;;;31.59;100.00
45275;BME280;31019;43.780;25.948;2022-08-19T08:57:17;100685.69;;;30.79;98.43
45275;BME280;31019;43.780;25.948;2022-08-19T08:59:48;100690.84;;;31.74;100.00
45275;BME280;31019;43.780;25.948;2022-08-19T09:02:25;100685.19;;;30.52;100.00
45275;BME280;31019;43.780;25.948;2022-08-19T09:04:54;100683.00;;;31.19;100.00
45275;BME280;31019;43.780;25.948;2022-08-19T09:07:27;100680.28;;;31.60;94.95
45275;BME280;31019;43.780;25.948;2022-08-19T09:10:23;100681.78;;;30.80;100.00
45275;BME280;31019;43.780;25.948;2022-08-19T09:13:01;100683.00;;;31.44;100.00
45275;BME280;31019;43.780;25.948;2022-08-19T09:15:40;100685.63;;;31.16;98.98
45275;BME280;31019;43.780;25.948;2022-08-19T09:18:10;100683.94;;;31.92;99.14
45275;BME280;31019;43.780;25.948;2022-08-19T09:20:47;100677.88;;;32.14;92.45
45275;BME280;31019;43.780;25.948;2022-08-19T09:23:14;100683.13;;;32.67;86.65
45275;BME280;31019;43.780;25.948;2022-08-19T09:25:43;100686.19;;;32.34;81.73
45275;BME280;31019;43.780;25.948;2022-08-19T09:28:10;100679.81;;;32.30;89.70
45275;BME280;31019;43.780;25.948;2022-08-19T09:30:47;100686.81;;;31.96;86.36
45275;BME280;31019;43.780;25.948;2022-08-19T09:33:19;100679.19;;;33.00;79.49
45275;BME280;31019;43.780;25.948;2022-08-19T09:35:46;100678.34;;;32.48;81.03
45275;BME280;31019;43.780;25.948;2022-08-19T09:38:13;100679.38;;;32.75;79.20
45275;BME280;31019;43.780;25.948;2022-08-19T09:40:40;100672.25;;;33.06;78.84
45275;BME280;31019;43.780;25.948;2022-08-19T09:43:07;100668.81;;;33.48;74.02
45275;BME280;31019;43.780;25.948;2022-08-19T09:45:42;100673.28;;;33.37;75.49
45275;BME280;31019;43.780;25.948;2022-08-19T09:48:10;100669.47;;;32.23;92.06
45275;BME280;31019;43.780;25.948;2022-08-19T09:50:49;100671.22;;;32.15;80.62
45275;BME280;31019;43.780;25.948;2022-08-19T09:53:26;100665.47;;;32.36;83.11
45275;BME280;31019;43.780;25.948;2022-08-19T09:55:54;100664.03;;;32.43;80.86
45275;BME280;31019;43.780;25.948;2022-08-19T09:58:25;100662.00;;;32.08;83.32
45275;BME280;31019;43.780;25.948;2022-08-19T10:00:53;100657.75;;;32.42;86.48
45275;BME280;31019;43.780;25.948;2022-08-19T10:03:38;100652.47;;;33.00;81.02
45275;BME280;31019;43.780;25.948;2022-08-19T10:06:08;100645.53;;;33.65;72.63
45275;BME280;31019;43.780;25.948;2022-08-19T10:08:37;100650.91;;;32.04;76.14
45275;BME280;31019;43.780;25.948;2022-08-19T10:11:09;100645.00;;;32.66;83.14
45275;BME280;31019;43.780;25.948;2022-08-19T10:13:39;100645.69;;;31.02;90.61
45275;BME280;31019;43.780;25.948;2022-08-19T10:16:09;100644.91;;;32.97;79.29
45275;BME280;31019;43.780;25.948;2022-08-19T10:18:59;100641.09;;;32.03;80.45
45275;BME280;31019;43.780;25.948;2022-08-19T10:21:41;100633.00;;;32.74;83.97
45275;BME280;31019;43.780;25.948;2022-08-19T10:24:08;100636.59;;;33.29;71.39
45275;BME280;31019;43.780;25.948;2022-08-19T10:26:43;100635.06;;;33.32;71.32
45275;BME280;31019;43.780;25.948;2022-08-19T10:29:13;100628.38;;;33.94;66.91
45275;BME280;31019;43.780;25.948;2022-08-19T10:31:43;100629.81;;;34.31;72.10
45275;BME280;31019;43.780;25.948;2022-08-19T10:34:10;100631.72;;;34.04;72.68
45275;BME280;31019;43.780;25.948;2022-08-19T10:36:37;100639.22;;;33.25;68.27
45275;BME280;31019;43.780;25.948;2022-08-19T10:39:09;100632.03;;;32.03;77.29
45275;BME280;31019;43.780;25.948;2022-08-19T10:41:51;100632.00;;;33.17;71.41
45275;BME280;31019;43.780;25.948;2022-08-19T10:44:19;100626.31;;;34.34;66.00
45275;BME280;31019;43.780;25.948;2022-08-19T10:46:48;100626.34;;;33.49;69.38
45275;BME280;31019;43.780;25.948;2022-08-19T10:52:23;100621.59;;;33.88;64.04
45275;BME280;31019;43.780;25.948;2022-08-19T10:55:05;100617.34;;;34.63;64.46
45275;BME280;31019;43.780;25.948;2022-08-19T10:57:50;100618.97;;;33.95;62.15
45275;BME280;31019;43.780;25.948;2022-08-19T11:00:18;100619.94;;;33.84;67.25
45275;BME280;31019;43.780;25.948;2022-08-19T11:02:45;100615.28;;;34.07;66.86
45275;BME280;31019;43.780;25.948;2022-08-19T11:05:13;100612.72;;;33.75;71.44
45275;BME280;31019;43.780;25.948;2022-08-19T11:07:40;100618.56;;;33.32;73.50
45275;BME280;31019;43.780;25.948;2022-08-19T11:10:19;100618.09;;;32.75;73.29
45275;BME280;31019;43.780;25.948;2022-08-19T11:12:59;100606.81;;;34.46;58.81
45275;BME280;31019;43.780;25.948;2022-08-19T11:15:26;100605.47;;;33.67;54.66
45275;BME280;31019;43.780;25.948;2022-08-19T11:17:56;100600.44;;;33.30;65.32
45275;BME280;31019;43.780;25.948;2022-08-19T11:20:23;100597.00;;;33.37;61.24
45275;BME280;31019;43.780;25.948;2022-08-19T11:22:58;100601.72;;;33.37;66.11
45275;BME280;31019;43.780;25.948;2022-08-19T11:25:26;100591.63;;;34.06;62.81
45275;BME280;31019;43.780;25.948;2022-08-19T11:27:54;100599.63;;;34.64;61.62
45275;BME280;31019;43.780;25.948;2022-08-19T11:30:22;100594.94;;;35.25;54.99
45275;BME280;31019;43.780;25.948;2022-08-19T11:32:49;100575.44;;;35.48;51.19
45275;BME280;31019;43.780;25.948;2022-08-19T11:35:28;100584.25;;;34.94;55.39
45275;BME280;31019;43.780;25.948;2022-08-19T11:38:19;100578.31;;;36.00;49.09
45275;BME280;31019;43.780;25.948;2022-08-19T11:40:55;100575.28;;;36.12;50.06
45275;BME280;31019;43.780;25.948;2022-08-19T11:43:29;100576.81;;;36.10;45.47
45275;BME280;31019;43.780;25.948;2022-08-19T11:46:05;100573.97;;;34.91;51.19
45275;BME280;31019;43.780;25.948;2022-08-19T11:48:33;100575.78;;;34.79;48.97
45275;BME280;31019;43.780;25.948;2022-08-19T11:51:04;100567.88;;;34.74;53.93
45275;BME280;31019;43.780;25.948;2022-08-19T11:53:36;100570.69;;;35.45;51.15
45275;BME280;31019;43.780;25.948;2022-08-19T11:56:13;100557.50;;;35.65;49.26
45275;BME280;31019;43.780;25.948;2022-08-19T11:58:40;100578.25;;;33.43;61.75
45275;BME280;31019;43.780;25.948;2022-08-19T12:01:09;100568.22;;;35.37;53.00
45275;BME280;31019;43.780;25.948;2022-08-19T12:03:48;100565.34;;;36.04;48.14
45275;BME280;31019;43.780;25.948;2022-08-19T12:06:27;100563.63;;;35.51;45.83
45275;BME280;31019;43.780;25.948;2022-08-19T12:08:58;100550.75;;;35.59;49.18
45275;BME280;31019;43.780;25.948;2022-08-19T12:11:33;100555.84;;;36.01;49.00
45275;BME280;31019;43.780;25.948;2022-08-19T12:14:00;100555.09;;;34.62;56.97
45275;BME280;31019;43.780;25.948;2022-08-19T12:16:29;100552.72;;;35.59;52.64
45275;BME280;31019;43.780;25.948;2022-08-19T12:19:05;100543.88;;;35.87;49.86
45275;BME280;31019;43.780;25.948;2022-08-19T12:21:34;100545.28;;;35.70;48.77
45275;BME280;31019;43.780;25.948;2022-08-19T12:24:03;100545.75;;;36.27;46.70
45275;BME280;31019;43.780;25.948;2022-08-19T12:26:35;100540.53;;;36.11;43.62
45275;BME280;31019;43.780;25.948;2022-08-19T12:29:21;100534.84;;;35.97;42.38
45275;BME280;31019;43.780;25.948;2022-08-19T12:34:32;100533.44;;;36.14;41.70
45275;BME280;31019;43.780;25.948;2022-08-19T12:37:02;100531.88;;;35.31;45.64
45275;BME280;31019;43.780;25.948;2022-08-19T12:39:29;100538.88;;;34.87;49.87
45275;BME280;31019;43.780;25.948;2022-08-19T12:42:02;100533.78;;;36.09;48.98
45275;BME280;31019;43.780;25.948;2022-08-19T12:44:29;100528.91;;;37.63;43.38
45275;BME280;31019;43.780;25.948;2022-08-19T12:46:57;100531.59;;;36.36;41.22
45275;BME280;31019;43.780;25.948;2022-08-19T12:49:25;100530.38;;;36.30;42.59
45275;BME280;31019;43.780;25.948;2022-08-19T12:51:54;100523.53;;;36.75;42.28
45275;BME280;31019;43.780;25.948;2022-08-19T12:54:24;100529.25;;;37.40;41.46
45275;BME280;31019;43.780;25.948;2022-08-19T12:56:58;100530.94;;;35.53;42.67
45275;BME280;31019;43.780;25.948;2022-08-19T12:59:27;100526.28;;;36.06;44.39
45275;BME280;31019;43.780;25.948;2022-08-19T13:01:55;100536.22;;;36.14;43.59
45275;BME280;31019;43.780;25.948;2022-08-19T13:04:22;100529.63;;;35.85;47.80
45275;BME280;31019;43.780;25.948;2022-08-19T13:06:50;100524.84;;;35.74;45.54
45275;BME280;31019;43.780;25.948;2022-08-19T13:09:31;100523.22;;;35.73;41.91
45275;BME280;31019;43.780;25.948;2022-08-19T13:12:11;100530.69;;;36.17;40.55
45275;BME280;31019;43.780;25.948;2022-08-19T13:14:46;100527.59;;;36.22;39.97